Time;durP1;ratioP1;P1;durP2;ratioP2;P2;SDS_P1;SDS_P2;PMS_P1;PMS_P2;Temp;Humidity;BMP_temperature;BMP_pressure;BME280_temperature;BME280_humidity;BME280_pressure;Samples;Min_cycle;Max_cycle;Signal;HPM_P1;HPM_P2
2022/05/04 00:01:08;;;;;;;8.50;2.47;;;8.60;99.90;;;;;;5028809;28;20057;-52
2022/05/04 00:03:39;;;;;;;14.07;3.10;;;8.50;99.90;;;;;;5003145;28;20050;-52
2022/05/04 00:06:05;;;;;;;10.52;2.63;;;8.50;99.90;;;;;;5018834;28;20041;-51
2022/05/04 00:08:31;;;;;;;14.95;2.50;;;8.70;99.90;;;;;;5020297;28;20045;-52
2022/05/04 00:10:57;;;;;;;9.93;3.15;;;8.60;99.90;;;;;;5019191;28;20046;-50
2022/05/04 00:13:23;;;;;;;10.55;2.85;;;8.60;99.90;;;;;;5020173;28;20435;-54
2022/05/04 00:15:48;;;;;;;9.18;2.30;;;8.60;99.90;;;;;;5032639;28;20432;-52
2022/05/04 00:18:14;;;;;;;9.20;2.38;;;8.60;99.90;;;;;;5038881;28;20045;-52
2022/05/04 00:20:40;;;;;;;12.10;3.42;;;8.60;99.90;;;;;;5040394;28;20053;-49
2022/05/04 00:23:06;;;;;;;8.23;2.30;;;8.60;99.90;;;;;;5038270;28;20049;-49
2022/05/04 00:25:32;;;;;;;8.25;2.20;;;8.60;99.90;;;;;;5040153;28;20045;-49
2022/05/04 00:28:00;;;;;;;11.82;2.92;;;8.60;99.90;;;;;;5020893;28;20033;-51
2022/05/04 00:30:26;;;;;;;10.38;2.90;;;8.70;99.90;;;;;;5039478;28;20045;-53
2022/05/04 00:32:52;;;;;;;9.65;2.42;;;8.70;99.90;;;;;;5039287;28;20041;-52
2022/05/04 00:35:18;;;;;;;12.55;2.58;;;8.70;99.90;;;;;;5038507;28;20052;-52
2022/05/04 00:37:43;;;;;;;9.95;2.55;;;8.70;99.90;;;;;;5040134;28;20072;-52
2022/05/04 00:40:09;;;;;;;12.60;3.45;;;8.70;99.90;;;;;;5037890;28;20046;-53
2022/05/04 00:42:35;;;;;;;8.73;2.30;;;8.70;99.90;;;;;;5039730;28;20067;-53
2022/05/04 00:45:01;;;;;;;12.15;2.60;;;8.70;99.90;;;;;;5038124;28;20394;-53
2022/05/04 00:47:26;;;;;;;8.35;2.50;;;8.70;99.90;;;;;;5039217;28;20073;-53
2022/05/04 00:49:52;;;;;;;12.88;2.95;;;8.70;99.90;;;;;;5020819;28;20132;-51
2022/05/04 00:52:19;;;;;;;10.57;2.70;;;8.70;99.90;;;;;;5038626;28;20037;-53
2022/05/04 00:54:48;;;;;;;14.32;2.33;;;8.70;99.90;;;;;;5039747;28;20041;-49
2022/05/04 00:57:17;;;;;;;11.10;2.40;;;8.70;99.90;;;;;;5037697;28;20103;-56
2022/05/04 00:59:43;;;;;;;10.68;2.50;;;8.70;99.90;;;;;;5039613;28;20097;-50
2022/05/04 01:02:09;;;;;;;13.43;2.55;;;8.70;99.90;;;;;;5019608;28;20061;-52
2022/05/04 01:04:35;;;;;;;12.68;3.55;;;8.70;99.90;;;;;;5019669;28;20042;-58
2022/05/04 01:07:00;;;;;;;10.27;2.33;;;8.70;99.90;;;;;;5019109;28;20053;-49
2022/05/04 01:09:26;;;;;;;10.43;2.40;;;8.60;99.90;;;;;;5019117;28;20380;-48
2022/05/04 01:11:52;;;;;;;7.43;2.30;;;8.70;99.90;;;;;;5019854;28;20115;-51
2022/05/04 01:14:18;;;;;;;11.98;2.60;;;8.70;99.90;;;;;;5018804;28;20044;-56
2022/05/04 01:16:46;;;;;;;9.50;2.20;;;8.70;99.90;;;;;;5039307;28;20056;-52
2022/05/04 01:19:12;;;;;;;10.80;2.63;;;8.70;99.90;;;;;;5020003;28;20410;-52
2022/05/04 01:21:38;;;;;;;10.80;2.92;;;8.70;99.90;;;;;;5038943;28;20045;-51
2022/05/04 01:24:04;;;;;;;10.63;2.13;;;8.60;99.90;;;;;;5038080;28;20052;-55
2022/05/04 01:26:30;;;;;;;9.75;2.75;;;8.60;99.90;;;;;;5038299;28;20068;-50
2022/05/04 01:28:56;;;;;;;10.18;2.70;;;8.60;99.90;;;;;;5021527;28;20497;-51
2022/05/04 01:31:22;;;;;;;10.02;2.70;;;8.70;99.90;;;;;;5037735;28;20037;-48
2022/05/04 01:33:48;;;;;;;10.45;2.67;;;8.70;99.90;;;;;;5039329;28;20041;-50
2022/05/04 01:36:14;;;;;;;11.35;2.63;;;8.70;99.90;;;;;;5037739;28;20057;-51
2022/05/04 01:38:39;;;;;;;9.23;2.30;;;8.60;99.90;;;;;;5038931;28;20077;-50
2022/05/04 01:42:02;;;;;;;9.88;2.42;;;8.60;99.90;;;;;;5037727;28;20037;-51
2022/05/04 01:43:50;;;;;;;9.23;2.60;;;8.50;99.90;;;;;;5037889;28;20441;-52
2022/05/04 01:46:16;;;;;;;11.05;2.60;;;8.60;99.90;;;;;;5039297;28;20065;-52
2022/05/04 01:48:43;;;;;;;11.80;2.75;;;8.60;99.90;;;;;;5039809;28;20045;-50
2022/05/04 01:51:09;;;;;;;12.65;3.05;;;8.70;99.90;;;;;;5043090;28;20649;-50
2022/05/04 01:53:35;;;;;;;13.13;2.78;;;8.70;99.90;;;;;;5041205;28;20069;-50
2022/05/04 01:56:06;;;;;;;15.25;3.05;;;8.60;99.90;;;;;;5024617;28;20076;-50
2022/05/04 01:58:32;;;;;;;11.27;2.80;;;8.60;99.90;;;;;;5042140;28;20064;-48
2022/05/04 02:00:58;;;;;;;12.68;2.50;;;8.50;99.90;;;;;;5032655;28;20105;-52
2022/05/04 02:03:24;;;;;;;7.53;2.60;;;8.60;99.90;;;;;;5023128;28;20050;-52
2022/05/04 02:05:50;;;;;;;9.05;2.50;;;8.50;99.90;;;;;;5021058;28;20041;-52
2022/05/04 02:08:16;;;;;;;11.48;3.30;;;8.50;99.90;;;;;;5022662;28;20073;-51
2022/05/04 02:10:41;;;;;;;13.05;3.28;;;8.50;99.90;;;;;;5021308;28;20081;-51
2022/05/04 02:13:07;;;;;;;10.52;3.20;;;8.60;99.90;;;;;;5022274;28;20050;-49
2022/05/04 02:15:32;;;;;;;10.30;2.75;;;8.50;99.90;;;;;;5032766;28;20121;-52
2022/05/04 02:17:58;;;;;;;8.68;3.17;;;8.50;99.90;;;;;;5023638;28;20425;-52
2022/05/04 02:20:24;;;;;;;13.90;3.42;;;8.50;99.90;;;;;;5024791;28;20427;-50
2022/05/04 02:22:49;;;;;;;10.18;2.92;;;8.50;99.90;;;;;;5040548;28;20042;-52
2022/05/04 02:25:15;;;;;;;14.68;3.72;;;8.50;99.90;;;;;;5024788;28;20091;-54
2022/05/04 02:27:41;;;;;;;10.63;3.10;;;8.50;99.90;;;;;;5040751;28;20041;-51
2022/05/04 02:30:07;;;;;;;10.18;2.90;;;8.50;99.90;;;;;;5041978;28;20093;-52
2022/05/04 02:32:32;;;;;;;10.68;2.63;;;8.50;99.90;;;;;;5026807;28;20045;-52
2022/05/04 02:37:55;;;;;;;9.40;2.63;;;8.60;99.90;;;;;;5022696;28;20042;-52
2022/05/04 02:40:21;;;;;;;11.75;3.20;;;8.50;99.90;;;;;;5020723;28;20121;-54
2022/05/04 02:42:46;;;;;;;7.82;2.22;;;8.40;99.90;;;;;;5022031;28;20050;-50
2022/05/04 02:45:14;;;;;;;10.45;2.38;;;8.40;99.90;;;;;;5020825;28;20045;-52
2022/05/04 02:47:40;;;;;;;8.10;2.20;;;8.60;99.90;;;;;;5021648;28;20081;-51
2022/05/04 02:50:07;;;;;;;6.68;2.28;;;8.50;99.90;;;;;;5021815;28;20117;-53
2022/05/04 02:52:32;;;;;;;8.05;1.92;;;8.40;99.90;;;;;;5020447;28;20053;-50
2022/05/04 02:54:58;;;;;;;11.07;2.38;;;8.50;99.90;;;;;;5022017;28;20045;-51
2022/05/04 02:57:24;;;;;;;11.60;3.03;;;8.60;99.90;;;;;;5020107;28;20053;-52
2022/05/04 02:59:50;;;;;;;12.48;3.00;;;8.50;99.90;;;;;;5021489;28;20037;-51
2022/05/04 03:02:27;;;;;;;9.07;2.20;;;8.50;99.90;;;;;;5020225;28;20470;-52
2022/05/04 03:05:01;;;;;;;7.32;2.28;;;8.60;99.90;;;;;;5021108;28;20519;-53
2022/05/04 03:07:27;;;;;;;9.15;2.35;;;8.40;99.90;;;;;;5021566;28;20077;-53
2022/05/04 03:09:56;;;;;;;12.00;2.47;;;8.50;99.90;;;;;;5020251;28;20033;-51
2022/05/04 03:12:22;;;;;;;11.00;2.40;;;8.40;99.90;;;;;;5004327;28;20053;-51
2022/05/04 03:14:48;;;;;;;12.90;2.88;;;8.30;99.90;;;;;;5019987;28;20461;-51
2022/05/04 03:17:14;;;;;;;9.07;2.38;;;8.30;99.90;;;;;;5021302;28;20072;-53
2022/05/04 03:19:40;;;;;;;11.32;2.55;;;8.30;99.90;;;;;;5020403;28;20042;-52
2022/05/04 03:22:06;;;;;;;9.48;2.45;;;8.40;99.90;;;;;;5002923;28;20054;-52
2022/05/04 03:24:32;;;;;;;12.88;2.35;;;8.40;99.90;;;;;;5021421;28;20069;-48
2022/05/04 03:26:58;;;;;;;10.75;2.60;;;8.40;99.90;;;;;;5019957;28;20050;-50
2022/05/04 03:29:24;;;;;;;11.48;3.22;;;8.40;99.90;;;;;;5021277;28;20034;-50
2022/05/04 03:31:50;;;;;;;10.60;2.85;;;8.40;99.90;;;;;;5019872;28;20046;-48
2022/05/04 03:34:15;;;;;;;11.32;2.33;;;8.50;99.90;;;;;;5021106;28;20038;-50
2022/05/04 03:36:41;;;;;;;9.20;2.28;;;8.40;99.90;;;;;;5020056;28;20046;-52
2022/05/04 03:39:07;;;;;;;8.30;2.40;;;8.40;99.90;;;;;;5020955;28;20491;-52
2022/05/04 03:41:34;;;;;;;8.15;2.00;;;8.40;99.90;;;;;;5021058;28;20073;-51
2022/05/04 03:44:00;;;;;;;9.35;2.47;;;8.40;99.90;;;;;;5019752;28;20436;-50
2022/05/04 03:46:28;;;;;;;10.13;2.70;;;8.50;99.90;;;;;;5003525;28;20050;-52
2022/05/04 03:48:55;;;;;;;9.00;2.42;;;8.50;99.90;;;;;;5019429;28;20049;-50
2022/05/04 03:51:21;;;;;;;8.23;2.20;;;8.40;99.90;;;;;;5020914;28;20096;-52
2022/05/04 03:53:52;;;;;;;10.43;2.40;;;8.30;99.90;;;;;;5019099;28;20038;-50
2022/05/04 03:56:18;;;;;;;8.40;2.30;;;8.30;99.90;;;;;;5018800;28;20049;-52
2022/05/04 03:58:44;;;;;;;9.95;2.92;;;8.30;99.90;;;;;;5020220;28;20058;-50
2022/05/04 04:01:11;;;;;;;12.02;3.22;;;8.30;99.90;;;;;;5001626;28;20483;-52
2022/05/04 04:03:37;;;;;;;9.07;2.53;;;8.40;99.90;;;;;;5021075;28;20042;-50
2022/05/04 04:06:03;;;;;;;10.00;2.72;;;8.50;99.90;;;;;;5019262;28;20073;-50
2022/05/04 04:08:29;;;;;;;10.85;2.70;;;8.50;99.90;;;;;;5020405;28;20046;-53
2022/05/04 04:10:55;;;;;;;14.38;3.13;;;8.40;99.90;;;;;;5018939;28;20101;-50
2022/05/04 04:13:21;;;;;;;13.00;2.97;;;8.40;99.90;;;;;;5020267;28;20038;-53
2022/05/04 04:15:51;;;;;;;10.52;3.08;;;8.50;99.90;;;;;;5020117;28;20045;-50
2022/05/04 04:18:25;;;;;;;12.98;2.80;;;8.40;99.90;;;;;;5001525;28;20121;-52
2022/05/04 04:23:36;;;;;;;11.10;2.75;;;8.40;99.90;;;;;;5018677;28;20081;-52
2022/05/04 04:26:04;;;;;;;10.00;2.83;;;8.40;99.90;;;;;;5020060;28;20042;-51
2022/05/04 04:28:30;;;;;;;10.60;3.00;;;8.40;99.90;;;;;;5019788;28;20097;-53
2022/05/04 04:30:56;;;;;;;11.32;3.10;;;8.40;99.90;;;;;;5001424;28;20057;-49
2022/05/04 04:33:26;;;;;;;15.95;3.08;;;8.40;99.90;;;;;;5020670;28;20038;-51
2022/05/04 04:35:53;;;;;;;13.85;3.60;;;8.40;99.90;;;;;;5018746;28;20073;-53
2022/05/04 04:38:19;;;;;;;10.05;3.20;;;8.40;99.90;;;;;;5019994;28;20060;-51
2022/05/04 04:40:44;;;;;;;12.63;2.80;;;8.30;99.90;;;;;;5018580;28;20073;-52
2022/05/04 04:43:10;;;;;;;7.18;1.80;;;8.20;99.90;;;;;;5019814;28;20060;-51
2022/05/04 04:45:36;;;;;;;9.40;2.35;;;8.30;99.90;;;;;;5019594;28;20061;-49
2022/05/04 04:48:02;;;;;;;9.23;2.78;;;8.30;99.90;;;;;;5018800;28;20482;-52
2022/05/04 04:50:27;;;;;;;9.32;2.35;;;8.40;99.90;;;;;;5020390;28;20121;-54
2022/05/04 04:52:53;;;;;;;10.27;2.70;;;8.40;99.90;;;;;;5017977;28;20045;-52
2022/05/04 04:55:19;;;;;;;10.07;2.75;;;8.50;99.90;;;;;;5020003;28;20084;-53
2022/05/04 04:57:45;;;;;;;8.23;2.00;;;8.50;99.90;;;;;;5018361;28;20053;-52
2022/05/04 05:00:11;;;;;;;9.90;2.30;;;8.50;99.90;;;;;;5019588;28;20046;-51
2022/05/04 05:02:36;;;;;;;8.02;2.30;;;8.50;99.90;;;;;;5019069;28;20045;-53
2022/05/04 05:05:03;;;;;;;8.52;2.85;;;8.60;99.90;;;;;;5019000;28;20092;-52
2022/05/04 05:07:29;;;;;;;8.63;2.25;;;8.50;99.90;;;;;;5019756;28;20093;-52
2022/05/04 05:09:55;;;;;;;17.35;2.85;;;8.60;99.90;;;;;;5018088;28;20041;-49
2022/05/04 05:12:21;;;;;;;9.23;2.38;;;8.50;99.90;;;;;;5002369;28;20046;-52
2022/05/04 05:17:32;;;;;;;10.30;2.30;;;8.40;99.90;;;;;;5019380;28;20096;-49
2022/05/04 05:19:58;;;;;;;10.70;2.90;;;8.50;99.90;;;;;;5018915;28;20038;-52
2022/05/04 05:22:24;;;;;;;11.52;2.65;;;8.50;99.90;;;;;;5018496;28;20412;-50
2022/05/04 05:24:50;;;;;;;6.93;2.08;;;8.50;99.90;;;;;;5024172;28;20076;-52
2022/05/04 05:27:16;;;;;;;9.90;2.75;;;8.50;99.90;;;;;;5021955;28;20045;-49
2022/05/04 05:29:41;;;;;;;8.73;2.70;;;8.50;99.90;;;;;;5023649;28;20089;-52
2022/05/04 05:32:07;;;;;;;9.05;2.60;;;8.50;99.90;;;;;;5022299;28;20042;-49
2022/05/04 05:34:34;;;;;;;7.30;2.38;;;8.50;99.90;;;;;;5023004;28;20049;-53
2022/05/04 05:37:01;;;;;;;7.07;2.53;;;8.60;99.90;;;;;;5005159;28;20037;-51
2022/05/04 05:39:27;;;;;;;12.38;3.22;;;8.60;99.90;;;;;;5004825;28;20073;-53
2022/05/04 05:41:52;;;;;;;8.23;2.67;;;8.60;99.90;;;;;;5023799;28;20042;-51
2022/05/04 05:44:18;;;;;;;10.27;2.47;;;8.60;99.90;;;;;;5021717;28;20081;-52
2022/05/04 05:46:44;;;;;;;9.82;2.47;;;8.60;99.90;;;;;;5023259;28;20060;-53
2022/05/04 05:49:10;;;;;;;9.10;2.78;;;9.00;99.90;;;;;;4999831;28;20057;-55
2022/05/04 05:51:35;;;;;;;11.65;2.50;;;8.80;99.90;;;;;;5019700;28;20149;-51
2022/05/04 05:54:01;;;;;;;9.70;2.38;;;8.70;99.90;;;;;;5018796;28;20100;-51
2022/05/04 05:56:27;;;;;;;9.85;2.30;;;8.80;99.90;;;;;;5018694;28;20050;-48
2022/05/04 05:58:52;;;;;;;11.38;2.20;;;8.80;99.90;;;;;;5019698;28;20057;-51
2022/05/04 06:01:19;;;;;;;8.60;2.45;;;8.70;99.90;;;;;;5018299;28;20049;-52
2022/05/04 06:03:45;;;;;;;10.85;2.75;;;8.80;99.90;;;;;;5019802;28;20565;-51
2022/05/04 06:06:12;;;;;;;10.82;2.30;;;8.80;99.90;;;;;;5018203;28;20067;-52
2022/05/04 06:08:37;;;;;;;10.25;2.50;;;8.90;99.90;;;;;;5019553;28;20108;-50
2022/05/04 06:11:04;;;;;;;9.73;2.42;;;8.80;99.90;;;;;;5018331;28;20646;-50
2022/05/04 06:13:30;;;;;;;13.50;2.92;;;8.80;99.90;;;;;;5019052;28;20056;-53
2022/05/04 06:15:56;;;;;;;12.68;3.00;;;8.80;99.90;;;;;;5019368;28;20105;-53
2022/05/04 06:18:22;;;;;;;8.98;2.22;;;8.70;99.90;;;;;;5017873;28;20037;-51
2022/05/04 06:20:47;;;;;;;10.80;2.40;;;8.70;99.90;;;;;;5019616;28;20048;-50
2022/05/04 06:23:13;;;;;;;10.02;2.42;;;8.90;99.90;;;;;;5017330;28;20057;-51
2022/05/04 06:25:41;;;;;;;10.50;2.80;;;8.90;99.90;;;;;;5019271;28;20546;-50
2022/05/04 06:28:06;;;;;;;8.90;2.60;;;8.70;99.90;;;;;;5018245;28;20045;-53
2022/05/04 06:36:01;;;;;;;12.98;2.75;;;8.60;99.90;;;;;;5017377;28;20052;-49
2022/05/04 06:38:27;;;;;;;10.25;2.22;;;8.80;99.90;;;;;;5019210;28;20129;-52
2022/05/04 06:40:53;;;;;;;9.45;2.72;;;8.90;99.90;;;;;;5017883;28;20135;-50
2022/05/04 06:43:19;;;;;;;8.05;1.98;;;8.90;99.90;;;;;;5018525;28;20410;-51
2022/05/04 06:45:45;;;;;;;8.52;2.42;;;8.90;99.90;;;;;;5018659;28;20042;-51
2022/05/04 06:48:11;;;;;;;12.82;2.42;;;8.90;99.90;;;;;;5017334;28;20096;-52
2022/05/04 06:50:37;;;;;;;8.95;2.60;;;8.80;99.90;;;;;;5017587;28;20430;-51
2022/05/04 06:53:03;;;;;;;10.73;2.65;;;8.90;99.90;;;;;;5016960;28;20046;-52
2022/05/04 06:55:29;;;;;;;10.07;2.17;;;8.90;99.90;;;;;;5018868;28;20053;-54
2022/05/04 06:57:55;;;;;;;10.73;2.97;;;9.10;99.90;;;;;;5016990;28;20077;-53
2022/05/04 07:00:20;;;;;;;7.82;2.22;;;9.20;99.90;;;;;;5000454;28;20042;-53
2022/05/04 07:02:46;;;;;;;10.82;2.47;;;9.20;99.90;;;;;;5000440;28;20057;-50
2022/05/04 07:05:12;;;;;;;10.15;2.55;;;9.30;99.90;;;;;;5017473;28;20042;-53
2022/05/04 07:07:37;;;;;;;16.30;2.78;;;9.20;99.90;;;;;;5018880;28;20436;-51
2022/05/04 07:10:03;;;;;;;8.50;2.25;;;9.40;99.90;;;;;;5016930;28;20049;-51
2022/05/04 07:12:29;;;;;;;9.07;2.20;;;9.40;99.90;;;;;;5018028;28;20046;-51
2022/05/04 07:14:56;;;;;;;8.80;2.25;;;9.40;99.90;;;;;;4999338;28;20556;-49
2022/05/04 07:17:22;;;;;;;8.05;2.28;;;9.40;99.90;;;;;;5018115;28;20080;-52
2022/05/04 07:19:48;;;;;;;10.45;2.40;;;9.50;99.90;;;;;;5017648;28;20046;-52
2022/05/04 07:22:14;;;;;;;13.55;3.55;;;9.50;99.90;;;;;;5016946;28;20053;-49
2022/05/04 07:24:40;;;;;;;8.90;2.00;;;9.50;99.90;;;;;;5018138;28;20046;-52
2022/05/04 07:27:06;;;;;;;9.50;2.17;;;9.70;99.90;;;;;;5016347;28;20050;-52
2022/05/04 07:29:34;;;;;;;8.88;2.28;;;9.80;99.90;;;;;;5018380;28;20092;-53
2022/05/04 07:32:00;;;;;;;7.75;1.73;;;9.70;99.90;;;;;;5016592;28;20131;-52
2022/05/04 07:34:26;;;;;;;8.93;2.05;;;9.80;99.90;;;;;;5017918;28;20053;-52
2022/05/04 07:36:52;;;;;;;9.38;2.50;;;9.80;99.90;;;;;;5017012;28;20057;-52
2022/05/04 07:42:21;;;;;;;7.15;2.17;;;9.80;99.90;;;;;;5018051;28;20057;-52
2022/05/04 07:45:07;;;;;;;8.82;2.13;;;9.70;99.90;;;;;;5016215;28;20048;-51
2022/05/04 07:47:34;;;;;;;8.32;2.58;;;9.70;99.90;;;;;;5017041;28;20046;-51
2022/05/04 07:50:01;;;;;;;9.10;2.17;;;9.70;99.90;;;;;;5017305;28;20041;-50
2022/05/04 07:52:27;;;;;;;9.35;1.88;;;9.60;99.90;;;;;;5016089;28;20049;-50
2022/05/04 07:54:53;;;;;;;9.07;2.17;;;9.70;99.90;;;;;;4994283;28;20057;-53
2022/05/04 07:57:19;;;;;;;7.97;1.83;;;9.80;99.90;;;;;;5003899;28;20058;-54
2022/05/04 08:04:16;;;;;;;9.68;2.67;;;9.40;99.90;;;;;;5006370;28;20093;-53
2022/05/04 08:05:17;;;;;;;11.70;2.97;;;9.50;99.90;;;;;;4996608;28;20054;-52
2022/05/04 08:07:42;;;;;;;10.10;2.50;;;9.70;99.90;;;;;;4998110;28;20046;-52
2022/05/04 08:10:08;;;;;;;10.35;1.95;;;9.70;99.90;;;;;;4996144;28;20118;-54
2022/05/04 08:12:35;;;;;;;8.55;2.65;;;9.80;99.90;;;;;;4997398;28;20046;-50
2022/05/04 08:15:01;;;;;;;8.68;1.60;;;9.80;99.90;;;;;;5001599;28;20073;-51
2022/05/04 08:17:27;;;;;;;7.43;1.95;;;10.00;99.90;;;;;;4999288;28;20056;-53
2022/05/04 08:19:52;;;;;;;10.85;2.65;;;10.10;99.90;;;;;;5016830;28;20056;-54
2022/05/04 08:22:18;;;;;;;10.73;2.53;;;10.10;99.90;;;;;;5015675;28;20081;-52
2022/05/04 08:24:44;;;;;;;7.95;2.00;;;9.90;99.90;;;;;;5016983;28;20048;-54
2022/05/04 08:27:09;;;;;;;11.68;2.13;;;10.20;99.90;;;;;;5015309;28;20046;-49
2022/05/04 08:29:35;;;;;;;8.65;1.98;;;10.10;99.90;;;;;;5016855;28;20050;-53
2022/05/04 08:32:01;;;;;;;7.78;1.85;;;10.10;99.90;;;;;;5015417;28;20918;-53
2022/05/04 08:34:27;;;;;;;8.82;2.58;;;10.10;99.90;;;;;;5016702;28;20065;-53
2022/05/04 08:36:52;;;;;;;11.38;2.67;;;10.00;99.90;;;;;;5015862;28;20117;-52
2022/05/04 08:39:18;;;;;;;7.22;1.90;;;10.10;99.90;;;;;;4998272;28;20038;-53
2022/05/04 08:41:44;;;;;;;8.27;1.98;;;10.10;99.90;;;;;;5017159;28;20108;-53
2022/05/04 08:44:11;;;;;;;10.65;2.33;;;10.10;99.90;;;;;;4997360;28;20044;-51
2022/05/04 08:46:40;;;;;;;8.15;2.40;;;10.10;99.90;;;;;;5016805;28;20050;-52
2022/05/04 08:49:06;;;;;;;7.47;2.00;;;10.20;99.90;;;;;;5014658;28;20077;-53
2022/05/04 08:51:34;;;;;;;9.90;3.25;;;10.10;99.90;;;;;;5016256;28;20609;-51
2022/05/04 08:54:00;;;;;;;8.38;2.30;;;10.20;99.90;;;;;;5015854;28;20034;-53
2022/05/04 08:56:26;;;;;;;7.55;1.80;;;10.30;99.90;;;;;;5015310;28;20108;-53
2022/05/04 08:58:52;;;;;;;9.20;2.55;;;10.30;99.90;;;;;;5010247;28;20053;-52
2022/05/04 09:01:18;;;;;;;9.13;2.40;;;10.30;99.90;;;;;;5005886;28;20113;-51
2022/05/04 09:03:43;;;;;;;6.97;2.22;;;10.50;99.90;;;;;;5006151;28;20052;-51
2022/05/04 09:06:09;;;;;;;6.50;1.70;;;10.40;99.90;;;;;;5012259;28;20050;-52
2022/05/04 09:08:53;;;;;;;8.48;1.90;;;10.50;99.90;;;;;;4998381;28;20081;-51
2022/05/04 09:11:24;;;;;;;9.40;2.47;;;10.60;99.90;;;;;;5015692;28;20050;-52
2022/05/04 09:13:50;;;;;;;6.65;2.28;;;10.60;99.90;;;;;;5015215;28;20117;-51
2022/05/04 09:16:30;;;;;;;8.48;2.00;;;10.70;99.90;;;;;;5033571;28;20133;-53
2022/05/04 09:18:58;;;;;;;10.52;2.20;;;11.10;99.90;;;;;;5034711;28;20120;-51
2022/05/04 09:21:25;;;;;;;6.20;1.73;;;11.30;99.90;;;;;;5035801;28;20041;-56
2022/05/04 09:23:52;;;;;;;8.20;2.03;;;11.10;99.90;;;;;;5034511;28;20053;-51
2022/05/04 09:26:20;;;;;;;7.35;2.05;;;11.50;99.90;;;;;;5036935;28;20049;-54
2022/05/04 09:28:58;;;;;;;10.45;2.10;;;11.70;99.90;;;;;;5039047;28;20042;-50
2022/05/04 09:31:30;;;;;;;8.75;2.40;;;11.50;99.90;;;;;;5037487;28;20523;-53
2022/05/04 09:33:57;;;;;;;11.17;2.43;;;11.30;99.90;;;;;;5039167;28;20042;-54
2022/05/04 09:36:37;;;;;;;7.60;1.98;;;11.20;99.90;;;;;;5037829;28;20284;-52
2022/05/04 09:45:15;;;;;;;7.22;1.90;;;11.10;99.90;;;;;;5037741;28;20092;-53
2022/05/04 09:47:45;;;;;;;8.70;2.42;;;10.90;99.90;;;;;;5038299;28;20425;-53
2022/05/04 09:50:13;;;;;;;11.05;2.45;;;10.90;99.90;;;;;;5039279;28;20105;-55
2022/05/04 09:52:42;;;;;;;10.30;2.20;;;11.30;99.90;;;;;;5037254;28;20053;-51
2022/05/04 09:55:16;;;;;;;8.52;2.10;;;11.50;99.90;;;;;;5038853;28;20497;-53
2022/05/04 09:57:43;;;;;;;6.82;2.05;;;11.70;99.90;;;;;;5037296;28;20206;-53
2022/05/04 10:00:10;;;;;;;9.93;2.63;;;11.90;99.90;;;;;;5025785;28;20051;-52
2022/05/04 10:02:37;;;;;;;10.45;2.53;;;11.60;99.90;;;;;;5017543;28;20057;-52
2022/05/04 10:05:07;;;;;;;9.55;2.30;;;11.60;99.90;;;;;;5018327;28;20413;-53
2022/05/04 10:07:35;;;;;;;7.32;2.03;;;11.30;99.90;;;;;;5011485;28;20132;-53
2022/05/04 10:10:01;;;;;;;8.43;2.25;;;11.20;99.90;;;;;;5009926;28;20049;-52
2022/05/04 10:12:28;;;;;;;7.72;2.25;;;11.40;99.90;;;;;;5011171;28;20038;-53
2022/05/04 10:14:58;;;;;;;10.38;2.95;;;11.70;99.90;;;;;;5016361;28;20059;-53
2022/05/04 10:17:26;;;;;;;9.13;2.60;;;12.00;99.90;;;;;;5042065;28;20053;-53
2022/05/04 10:20:11;;;;;;;7.70;2.55;;;12.20;99.90;;;;;;5041545;28;20045;-53
2022/05/04 10:22:47;;;;;;;15.90;3.83;;;11.70;99.90;;;;;;5040520;28;20101;-52
2022/05/04 10:25:14;;;;;;;7.35;2.35;;;12.00;99.90;;;;;;5042401;28;20076;-54
2022/05/04 10:27:41;;;;;;;9.30;2.30;;;12.10;99.90;;;;;;5040818;28;20080;-52
2022/05/04 10:33:18;;;;;;;9.80;2.45;;;12.20;99.90;;;;;;5042048;28;20048;-52
2022/05/04 10:35:48;;;;;;;11.65;2.58;;;12.30;99.90;;;;;;5040324;28;20048;-53
2022/05/04 10:38:27;;;;;;;8.30;3.00;;;12.00;99.90;;;;;;5041831;28;20038;-52
2022/05/04 10:41:02;;;;;;;8.52;2.75;;;12.00;99.90;;;;;;5006318;28;20060;-53
2022/05/04 10:43:34;;;;;;;8.05;3.03;;;12.00;99.90;;;;;;5041179;28;20045;-52
2022/05/04 10:46:08;;;;;;;10.73;2.85;;;12.20;99.90;;;;;;5042131;28;20044;-53
2022/05/04 10:48:34;;;;;;;8.23;2.47;;;12.00;99.90;;;;;;5040103;28;20470;-51
2022/05/04 10:51:18;;;;;;;9.80;2.45;;;12.20;99.90;;;;;;5041661;28;20497;-54
2022/05/04 10:53:46;;;;;;;9.52;2.58;;;12.20;99.90;;;;;;5040446;28;20069;-51
2022/05/04 10:56:21;;;;;;;10.48;2.50;;;12.20;99.90;;;;;;5017257;28;20058;-51
2022/05/04 10:58:59;;;;;;;7.13;2.17;;;12.40;99.90;;;;;;5022049;28;20120;-52
2022/05/04 11:01:30;;;;;;;10.68;3.20;;;12.70;99.90;;;;;;5007666;28;20052;-52
2022/05/04 11:03:56;;;;;;;9.85;2.90;;;12.50;99.90;;;;;;5001896;28;20038;-53
2022/05/04 11:06:29;;;;;;;8.02;2.22;;;12.00;99.90;;;;;;5000416;28;20058;-52
2022/05/04 11:08:58;;;;;;;9.02;2.60;;;11.60;99.90;;;;;;5016560;28;20518;-54
2022/05/04 11:11:25;;;;;;;11.13;3.20;;;12.00;99.90;;;;;;5001785;28;20042;-52
2022/05/04 11:13:51;;;;;;;9.77;2.70;;;12.10;99.90;;;;;;5000343;28;20053;-54
2022/05/04 11:16:19;;;;;;;8.90;2.63;;;12.30;99.90;;;;;;5018709;28;20049;-53
2022/05/04 11:18:45;;;;;;;8.65;2.05;;;12.60;99.90;;;;;;4986131;28;20054;-53
2022/05/04 11:21:15;;;;;;;7.50;2.50;;;13.10;99.90;;;;;;5021038;28;20052;-54
2022/05/04 11:23:49;;;;;;;9.88;2.40;;;13.30;99.90;;;;;;5020003;28;20097;-54
2022/05/04 11:26:23;;;;;;;13.63;2.88;;;13.10;99.90;;;;;;5020317;28;20049;-53
2022/05/04 11:28:50;;;;;;;10.13;2.50;;;13.30;99.90;;;;;;5021499;28;20058;-53
2022/05/04 11:31:17;;;;;;;6.93;2.00;;;13.20;99.90;;;;;;5019406;28;20034;-53
2022/05/04 11:33:47;;;;;;;9.13;2.55;;;13.30;99.90;;;;;;5021168;28;20056;-52
2022/05/04 11:36:17;;;;;;;7.38;2.20;;;13.30;99.50;;;;;;5019525;28;20068;-51
2022/05/04 11:38:46;;;;;;;9.57;2.08;;;13.30;99.90;;;;;;5003153;28;20046;-52
2022/05/04 11:41:13;;;;;;;8.20;2.50;;;13.60;99.30;;;;;;5020265;28;20061;-53
2022/05/04 11:43:39;;;;;;;7.68;2.70;;;13.70;99.20;;;;;;5019562;28;20522;-51
2022/05/04 11:46:07;;;;;;;9.25;2.40;;;13.80;98.90;;;;;;5020949;28;20050;-52
2022/05/04 11:48:36;;;;;;;10.05;2.50;;;13.70;99.70;;;;;;5019189;28;20046;-53
2022/05/04 11:51:03;;;;;;;11.32;2.75;;;13.80;99.70;;;;;;5020367;28;20081;-53
2022/05/04 11:53:29;;;;;;;12.07;2.50;;;13.50;99.20;;;;;;5019117;28;20508;-51
2022/05/04 11:55:58;;;;;;;9.20;2.60;;;13.70;99.90;;;;;;5023540;28;20513;-54
2022/05/04 11:58:27;;;;;;;10.15;2.40;;;13.80;99.10;;;;;;5039924;28;20518;-53
2022/05/04 12:00:54;;;;;;;8.82;2.60;;;13.70;99.90;;;;;;4996674;28;20042;-52
2022/05/04 12:03:22;;;;;;;8.27;2.15;;;13.90;99.40;;;;;;5020838;28;20038;-53
2022/05/04 12:05:48;;;;;;;13.30;3.67;;;13.90;98.60;;;;;;5001612;28;20072;-52
2022/05/04 12:08:17;;;;;;;7.60;2.28;;;13.90;97.40;;;;;;5002531;28;20060;-53
2022/05/04 12:10:43;;;;;;;8.93;2.80;;;13.80;99.20;;;;;;5018995;28;20053;-53
2022/05/04 12:13:08;;;;;;;7.70;2.42;;;13.80;98.80;;;;;;5013570;28;20030;-53
2022/05/04 12:15:37;;;;;;;9.52;2.75;;;13.50;98.50;;;;;;5006762;28;20082;-54
2022/05/04 12:18:05;;;;;;;8.70;2.47;;;13.40;99.20;;;;;;4999213;28;20070;-53
2022/05/04 12:20:34;;;;;;;11.02;2.55;;;13.60;99.20;;;;;;5000811;28;20038;-53
2022/05/04 12:23:01;;;;;;;8.63;2.50;;;13.50;99.10;;;;;;4998871;28;20505;-52
2022/05/04 12:25:27;;;;;;;10.35;2.63;;;14.00;99.10;;;;;;5000100;28;20121;-53
2022/05/04 12:27:55;;;;;;;11.63;3.03;;;14.10;98.30;;;;;;4999158;28;20065;-53
2022/05/04 12:33:13;;;;;;;8.88;2.65;;;14.30;99.50;;;;;;4998979;28;20081;-51
2022/05/04 12:35:46;;;;;;;9.88;2.90;;;14.30;99.40;;;;;;4998864;28;20066;-52
2022/05/04 12:38:19;;;;;;;8.48;3.00;;;13.10;97.90;;;;;;5000335;28;20045;-52
2022/05/04 12:40:46;;;;;;;7.60;2.53;;;13.10;99.30;;;;;;4981301;28;20096;-51
2022/05/04 12:43:13;;;;;;;9.43;2.67;;;13.40;99.50;;;;;;4999651;28;20092;-55
2022/05/04 12:45:39;;;;;;;11.25;2.63;;;13.50;99.50;;;;;;4998501;28;20046;-51
2022/05/04 12:48:09;;;;;;;8.80;2.47;;;13.10;99.60;;;;;;4990928;28;20061;-50
2022/05/04 12:50:36;;;;;;;9.73;2.40;;;13.40;98.90;;;;;;4981411;28;20106;-50
2022/05/04 12:53:04;;;;;;;9.20;2.25;;;13.80;99.10;;;;;;4980845;28;20046;-50
2022/05/04 12:58:14;;;;;;;7.47;2.50;;;14.10;98.30;;;;;;4960480;28;20085;-50
2022/05/04 13:00:41;;;;;;;9.43;2.88;;;13.90;99.10;;;;;;4961573;28;20058;-50
2022/05/04 13:03:09;;;;;;;9.07;2.83;;;14.20;98.40;;;;;;4966853;28;20046;-49
2022/05/04 13:05:35;;;;;;;9.57;2.47;;;14.30;97.80;;;;;;4967570;28;20047;-50
2022/05/04 13:08:00;;;;;;;9.40;2.83;;;14.40;98.80;;;;;;4969327;28;20050;-49
2022/05/04 13:10:26;;;;;;;7.72;2.55;;;14.30;99.00;;;;;;4966194;28;20110;-49
2022/05/04 13:12:52;;;;;;;7.78;2.10;;;14.50;98.10;;;;;;4964910;28;20391;-49
2022/05/04 13:15:18;;;;;;;9.68;2.90;;;14.80;98.70;;;;;;4968895;28;20053;-54
2022/05/04 13:17:43;;;;;;;8.90;3.33;;;15.00;97.90;;;;;;4966402;28;20034;-52
2022/05/04 13:20:09;;;;;;;9.20;2.90;;;14.80;97.20;;;;;;4963150;28;20046;-53
2022/05/04 13:22:36;;;;;;;7.80;2.65;;;14.90;98.00;;;;;;4967613;28;20719;-49